createdAt,value
2019-04-14T00:00:05.483Z,61.77
2019-04-14T00:01:04.503Z,62.39
2019-04-14T00:02:05.311Z,61.98
2019-04-14T00:03:04.527Z,61.67
2019-04-14T00:04:05.262Z,62.08
2019-04-14T00:05:04.426Z,62.18
2019-04-14T00:06:04.817Z,62.18
2019-04-14T00:07:04.398Z,62.08
2019-04-14T00:08:04.658Z,61.98
2019-04-14T00:09:05.332Z,62.39
2019-04-14T00:10:05.037Z,62.08
2019-04-14T00:11:04.377Z,62.18
2019-04-14T00:12:07.355Z,62.29
2019-04-14T00:13:04.607Z,62.49
2019-04-14T00:14:05.313Z,62.70
2019-04-14T00:15:05.685Z,61.98
2019-04-14T00:16:05.429Z,62.18
2019-04-14T00:17:04.331Z,62.70
2019-04-14T00:18:05.363Z,62.49
2019-04-14T00:19:04.448Z,62.39
2019-04-14T00:20:05.376Z,62.39
2019-04-14T00:21:04.513Z,62.39
2019-04-14T00:22:05.293Z,62.81
2019-04-14T00:23:04.448Z,62.91
2019-04-14T00:24:05.207Z,62.81
2019-04-14T00:25:04.412Z,62.81
2019-04-14T00:26:05.177Z,63.46
2019-04-14T00:27:04.299Z,62.91
2019-04-14T00:28:05.219Z,63.64
2019-04-14T00:29:04.593Z,63.56
2019-04-14T00:30:05.397Z,63.25
2019-04-14T00:31:04.513Z,63.25
2019-04-14T00:32:05.175Z,63.43
2019-04-14T00:33:04.202Z,63.56
2019-04-14T00:34:05.142Z,64.07
2019-04-14T00:35:04.103Z,63.84
2019-04-14T00:36:04.471Z,64.07
2019-04-14T00:37:04.095Z,64.18
2019-04-14T00:38:04.247Z,64.25
2019-04-14T00:39:05.127Z,64.18
2019-04-14T00:40:04.096Z,64.39
2019-04-14T00:41:05.141Z,64.18
2019-04-14T00:42:05.358Z,64.28
2019-04-14T00:43:04.924Z,64.49
2019-04-14T00:44:04.007Z,64.90
2019-04-14T00:45:04.806Z,65.22
2019-04-14T00:46:04.320Z,64.90
2019-04-14T00:47:04.978Z,65.11
2019-04-14T00:48:09.794Z,65.22
2019-04-14T00:49:05.050Z,65.42
2019-04-14T00:50:03.942Z,65.53
2019-04-14T00:51:04.873Z,65.84
2019-04-14T00:52:03.984Z,65.73
2019-04-14T00:53:03.891Z,65.84
2019-04-14T00:54:04.404Z,66.46
2019-04-14T00:55:03.891Z,66.46
2019-04-14T00:56:04.117Z,66.32
2019-04-14T00:57:05.077Z,66.15
2019-04-14T00:58:03.921Z,66.77
2019-04-14T00:59:04.937Z,66.35
2019-04-14T01:00:03.938Z,66.66
2019-04-14T01:01:04.805Z,66.56
2019-04-14T01:02:03.830Z,66.66
2019-04-14T01:03:04.773Z,67.08
2019-04-14T01:04:03.775Z,66.77
2019-04-14T01:05:04.451Z,67.49
2019-04-14T01:06:03.759Z,67.39
2019-04-14T01:07:04.372Z,67.29
2019-04-14T01:08:03.741Z,67.18
2019-04-14T01:09:04.286Z,67.70
2019-04-14T01:10:04.017Z,68.22
2019-04-14T01:11:03.697Z,68.22
2019-04-14T01:12:03.930Z,68.12
2019-04-14T01:13:05.117Z,68.22
2019-04-14T01:14:03.760Z,68.22
2019-04-14T01:15:04.915Z,68.43
2019-04-14T01:16:08.876Z,68.43
2019-04-14T01:17:04.815Z,68.12
2019-04-14T01:18:03.670Z,68.43
2019-04-14T01:19:04.686Z,68.74
2019-04-14T01:20:03.744Z,68.84
2019-04-14T01:21:04.596Z,68.53
2019-04-14T01:22:03.614Z,68.53
2019-04-14T01:23:04.191Z,69.04
2019-04-14T01:24:03.561Z,68.84
2019-04-14T01:25:04.362Z,69.15
2019-04-14T01:26:03.534Z,69.46
2019-04-14T01:27:03.932Z,69.35
2019-04-14T01:28:04.563Z,69.25
2019-04-14T01:29:03.723Z,69.04
2019-04-14T01:30:04.523Z,70.39
2019-04-14T01:31:03.473Z,69.67
2019-04-14T01:32:04.539Z,69.46
2019-04-14T01:33:03.474Z,70.18
2019-04-14T01:34:04.119Z,70.39
2019-04-14T01:35:03.436Z,70.60
2019-04-14T01:36:03.942Z,71.01
2019-04-14T01:37:03.405Z,71.01
2019-04-14T01:38:03.772Z,71.33
2019-04-14T01:39:04.614Z,71.98
2019-04-14T01:40:03.421Z,71.84
2019-04-14T01:41:04.245Z,72.67
2019-04-14T01:42:03.342Z,72.67
2019-04-14T01:43:03.859Z,72.67
2019-04-14T01:44:04.566Z,73.29
2019-04-14T01:45:03.646Z,73.74
2019-04-14T01:46:12.167Z,73.74
2019-04-14T01:47:05.297Z,73.84
2019-04-14T01:48:03.883Z,73.84
2019-04-14T01:49:03.289Z,73.84
2019-04-14T01:50:03.804Z,74.05
2019-04-14T01:51:03.252Z,74.12
2019-04-14T01:52:03.616Z,74.32
2019-04-14T01:53:03.279Z,74.57
2019-04-14T01:54:03.935Z,74.46
2019-04-14T01:55:03.204Z,74.46
2019-04-14T01:56:03.493Z,74.57
2019-04-14T01:57:03.193Z,74.98
2019-04-14T01:58:03.328Z,75.29
2019-04-14T01:59:04.366Z,75.19
2019-04-14T02:00:03.320Z,75.40
2019-04-14T02:01:04.098Z,75.40
2019-04-14T02:02:03.126Z,75.71
2019-04-14T02:03:04.141Z,75.81
2019-04-14T02:04:03.132Z,76.43
2019-04-14T02:05:03.928Z,76.57
2019-04-14T02:06:03.070Z,76.32
2019-04-14T02:07:03.835Z,76.67
2019-04-14T02:08:04.391Z,77.29
2019-04-14T02:09:03.313Z,76.67
2019-04-14T02:10:03.966Z,77.29
2019-04-14T02:11:03.085Z,77.29
2019-04-14T02:12:03.824Z,77.50
2019-04-14T02:13:02.996Z,78.23
2019-04-14T02:14:03.659Z,77.81
2019-04-14T02:15:02.986Z,78.33
2019-04-14T02:16:16.504Z,78.54
2019-04-14T02:17:04.903Z,78.37
2019-04-14T02:18:03.272Z,78.64
2019-04-14T02:19:02.948Z,79.10
2019-04-14T02:20:03.332Z,78.99
2019-04-14T02:21:04.193Z,78.96
2019-04-14T02:22:02.897Z,78.78
2019-04-14T02:23:03.990Z,78.68
2019-04-14T02:24:02.911Z,78.89
2019-04-14T02:25:03.586Z,78.68
2019-04-14T02:26:02.863Z,79.27
2019-04-14T02:27:03.498Z,79.16
2019-04-14T02:28:02.829Z,79.30
2019-04-14T02:29:03.603Z,79.27
2019-04-14T02:30:03.850Z,79.47
2019-04-14T02:31:18.898Z,79.68
2019-04-14T02:33:44.741Z,80.40
2019-04-14T02:34:34.884Z,80.33
2019-04-14T02:35:45.018Z,79.92
2019-04-14T02:36:32.168Z,80.54
2019-04-14T02:38:48.983Z,80.23
2019-04-14T02:39:33.981Z,80.19
2019-04-14T02:40:36.538Z,80.13
2019-04-14T02:43:38.084Z,80.44
2019-04-14T02:44:33.631Z,80.96
2019-04-14T02:45:35.541Z,80.75
2019-04-14T02:46:34.397Z,81.27
2019-04-14T02:50:26.407Z,81.93
2019-04-14T02:51:42.493Z,82.24
2019-04-14T02:52:30.373Z,82.24
2019-04-14T02:53:36.482Z,82.03
2019-04-14T02:54:36.947Z,82.55
2019-04-14T02:55:29.776Z,82.34
2019-04-14T02:56:32.582Z,82.65
2019-04-14T02:57:30.457Z,82.97
2019-04-14T02:58:36.548Z,82.86
2019-04-14T02:59:27.071Z,83.28
2019-04-14T03:00:35.711Z,83.38
2019-04-14T03:01:34.995Z,83.48
2019-04-14T03:02:29.915Z,83.28
2019-04-14T03:03:35.579Z,83.38
2019-04-14T03:04:25.477Z,83.28
2019-04-14T03:05:26.547Z,83.38
2019-04-14T03:06:29.121Z,83.48
2019-04-14T03:07:30.382Z,83.53
2019-04-14T03:08:34.595Z,83.63
2019-04-14T03:09:38.949Z,83.84
2019-04-14T03:13:30.839Z,84.46
2019-04-14T03:14:31.014Z,84.36
2019-04-14T03:15:37.777Z,83.94
2019-04-14T03:17:30.055Z,84.05
2019-04-14T03:19:35.562Z,84.67
2019-04-14T03:21:40.488Z,84.67
2019-04-14T03:22:36.954Z,84.46
2019-04-14T03:23:38.121Z,84.77
2019-04-14T03:24:29.137Z,84.98
2019-04-14T03:25:15.251Z,84.88
2019-04-14T03:26:29.691Z,84.88
2019-04-14T03:27:32.667Z,84.98
2019-04-14T03:29:28.840Z,85.19
2019-04-14T03:31:51.872Z,84.77
2019-04-14T03:33:05.301Z,85.19
2019-04-14T03:37:27.229Z,84.98
2019-04-14T03:39:32.044Z,84.88
2019-04-14T03:40:35.675Z,84.56
2019-04-14T03:42:36.085Z,84.77
2019-04-14T03:43:30.273Z,84.98
2019-04-14T03:45:36.449Z,84.46
2019-04-14T03:47:25.603Z,84.88
2019-04-14T03:49:32.252Z,84.77
2019-04-14T03:50:30.818Z,84.98
2019-04-14T03:53:28.969Z,84.83
2019-04-14T03:54:20.196Z,85.14
2019-04-14T03:55:17.906Z,84.77
2019-04-14T03:56:07.125Z,84.77
2019-04-14T03:57:03.985Z,84.67
2019-04-14T03:58:03.534Z,84.98
2019-04-14T03:59:02.039Z,84.67
2019-04-14T04:00:03.065Z,84.88
2019-04-14T04:01:01.965Z,84.67
2019-04-14T04:02:03.112Z,84.77
2019-04-14T04:03:02.112Z,84.67
2019-04-14T04:04:02.956Z,84.77
2019-04-14T04:05:02.252Z,85.19
2019-04-14T04:06:01.740Z,84.56
2019-04-14T04:07:01.929Z,84.88
2019-04-14T04:08:02.746Z,85.19
2019-04-14T04:09:01.938Z,84.88
2019-04-14T04:10:03.016Z,84.77
2019-04-14T04:11:02.024Z,84.98
2019-04-14T04:12:03.026Z,84.67
2019-04-14T04:13:01.966Z,84.77
2019-04-14T04:14:01.667Z,84.56
2019-04-14T04:15:01.939Z,84.77
2019-04-14T04:16:02.871Z,84.98
2019-04-14T04:17:01.639Z,84.67
2019-04-14T04:18:02.678Z,84.36
2019-04-14T04:19:07.375Z,84.98
2019-04-14T04:20:02.675Z,84.77
2019-04-14T04:21:01.573Z,84.56
2019-04-14T04:22:02.119Z,84.98
2019-04-14T04:23:01.575Z,85.19
2019-04-14T04:24:02.647Z,85.19
2019-04-14T04:25:01.538Z,85.08
2019-04-14T04:26:01.873Z,84.88
2019-04-14T04:27:02.561Z,84.77
2019-04-14T04:28:01.650Z,85.29
2019-04-14T04:29:02.694Z,85.71
2019-04-14T04:30:01.854Z,86.33
2019-04-14T04:31:02.428Z,85.60
2019-04-14T04:32:01.482Z,85.50
2019-04-14T04:33:02.326Z,85.60
2019-04-14T04:34:01.440Z,86.33
2019-04-14T04:35:02.189Z,86.02
2019-04-14T04:36:01.413Z,85.91
2019-04-14T04:37:01.848Z,86.43
2019-04-14T04:38:01.397Z,85.71
2019-04-14T04:39:01.805Z,85.71
2019-04-14T04:40:01.374Z,86.22
2019-04-14T04:41:01.625Z,87.16
2019-04-14T04:42:02.574Z,87.16
2019-04-14T04:43:01.351Z,86.74
2019-04-14T04:44:01.347Z,87.16
2019-04-14T04:45:01.820Z,87.47
2019-04-14T04:46:02.628Z,87.47
2019-04-14T04:47:01.292Z,87.37
2019-04-14T04:48:02.426Z,87.68
2019-04-14T04:49:09.854Z,86.99
2019-04-14T04:50:02.472Z,87.61
2019-04-14T04:51:01.252Z,87.88
2019-04-14T04:52:01.817Z,87.19
2019-04-14T04:53:01.250Z,88.54
2019-04-14T04:54:01.692Z,88.20
2019-04-14T04:55:02.267Z,88.02
2019-04-14T04:56:01.518Z,88.51
2019-04-14T04:57:02.368Z,89.23
2019-04-14T04:58:01.425Z,88.44
2019-04-14T04:59:01.197Z,88.23
2019-04-14T05:00:01.159Z,88.02
2019-04-14T05:01:01.435Z,88.85
2019-04-14T05:02:01.127Z,88.54
2019-04-14T05:03:01.427Z,88.65
2019-04-14T05:04:01.104Z,88.13
2019-04-14T05:05:01.346Z,88.34
2019-04-14T05:06:01.087Z,88.23
2019-04-14T05:07:01.480Z,88.44
2019-04-14T05:08:02.199Z,88.23
2019-04-14T05:09:01.338Z,87.82
2019-04-14T05:10:02.546Z,87.19
2019-04-14T05:11:01.134Z,88.02
2019-04-14T05:12:02.255Z,88.23
2019-04-14T05:13:01.036Z,87.71
2019-04-14T05:14:02.013Z,87.51
2019-04-14T05:15:01.180Z,87.92
2019-04-14T05:16:02.106Z,88.02
2019-04-14T05:17:01.457Z,88.44
2019-04-14T05:18:00.974Z,89.03
2019-04-14T05:19:12.007Z,89.23
2019-04-14T05:20:03.058Z,89.03
2019-04-14T05:21:01.764Z,89.06
2019-04-14T05:22:00.930Z,88.92
2019-04-14T05:23:01.593Z,88.44
2019-04-14T05:24:00.930Z,88.44
2019-04-14T05:25:01.449Z,88.65
2019-04-14T05:26:00.861Z,88.40
2019-04-14T05:27:01.399Z,88.20
2019-04-14T05:28:00.878Z,88.20
2019-04-14T05:29:01.444Z,88.30
2019-04-14T05:30:00.817Z,88.20
2019-04-14T05:31:01.286Z,88.20
2019-04-14T05:32:00.795Z,88.30
2019-04-14T05:33:00.936Z,89.34
2019-04-14T05:34:00.787Z,88.36
2019-04-14T05:35:00.922Z,88.15
2019-04-14T05:36:01.969Z,87.68
2019-04-14T05:37:00.764Z,87.63
2019-04-14T05:38:01.790Z,87.53
2019-04-14T05:39:00.738Z,87.22
2019-04-14T05:40:01.619Z,87.53
2019-04-14T05:41:00.712Z,88.26
2019-04-14T05:42:09.407Z,88.26
2019-04-14T05:43:02.504Z,88.15
2019-04-14T05:44:02.887Z,88.05
2019-04-14T05:45:00.655Z,87.95
2019-04-14T05:46:01.303Z,87.22
2019-04-14T05:47:00.625Z,87.74
2019-04-14T05:48:01.095Z,88.15
2019-04-14T05:49:00.635Z,88.15
2019-04-14T05:50:00.972Z,88.26
2019-04-14T05:51:00.589Z,88.46
2019-04-14T05:52:01.299Z,88.57
2019-04-14T05:53:00.560Z,88.46
2019-04-14T05:54:01.138Z,88.15
2019-04-14T05:55:00.558Z,87.95
2019-04-14T05:56:01.454Z,87.53
2019-04-14T05:57:00.519Z,87.43
2019-04-14T05:58:01.428Z,87.43
2019-04-14T05:59:00.525Z,86.60
2019-04-14T06:00:01.661Z,87.12
2019-04-14T06:01:00.478Z,87.63
2019-04-14T06:02:00.468Z,87.95
2019-04-14T06:03:01.578Z,88.36
2019-04-14T06:04:00.459Z,88.09
2019-04-14T06:05:01.439Z,88.98
2019-04-14T06:06:00.417Z,89.03
2019-04-14T06:07:00.417Z,89.29
2019-04-14T06:08:00.395Z,87.99
2019-04-14T06:09:00.409Z,88.51
2019-04-14T06:10:00.371Z,88.20
2019-04-14T06:11:00.365Z,89.34
2019-04-14T06:12:00.356Z,89.13
2019-04-14T06:13:00.353Z,89.13
2019-04-14T06:14:00.365Z,89.13
2019-04-14T06:15:00.327Z,89.03
2019-04-14T06:16:00.349Z,89.65
2019-04-14T06:17:00.299Z,89.65
2019-04-14T06:18:00.297Z,88.51
2019-04-14T06:19:00.305Z,89.23
2019-04-14T06:20:00.278Z,88.23
2019-04-14T06:21:00.263Z,88.44
2019-04-14T06:22:00.244Z,89.03
2019-04-14T06:23:00.230Z,89.37
2019-04-14T06:24:00.230Z,89.23
2019-04-14T06:25:00.237Z,89.54
2019-04-14T06:26:00.221Z,89.69
2019-04-14T06:27:00.187Z,89.44
2019-04-14T06:28:00.175Z,89.34
2019-04-14T06:29:00.171Z,90.27
2019-04-14T06:30:00.184Z,90.58
2019-04-14T06:31:00.140Z,90.48
2019-04-14T06:32:00.140Z,89.54
2019-04-14T06:33:00.135Z,89.54
2019-04-14T06:34:00.117Z,89.54
2019-04-14T06:35:00.122Z,89.96
2019-04-14T06:36:00.114Z,90.27
2019-04-14T06:37:00.084Z,90.37
2019-04-14T06:38:00.072Z,90.37
2019-04-14T06:39:00.056Z,91.41
2019-04-14T06:40:00.064Z,91.31
2019-04-14T06:41:00.045Z,90.58
2019-04-14T06:42:00.028Z,91.41
2019-04-14T06:43:00.022Z,91.62
2019-04-14T06:44:00.010Z,90.79
2019-04-14T06:45:00.032Z,91.62
2019-04-14T06:45:59.982Z,91.62
2019-04-14T06:46:59.994Z,91.72
2019-04-14T06:47:59.999Z,91.10
2019-04-14T06:48:59.955Z,91.62
2019-04-14T06:49:59.982Z,91.72
2019-04-14T06:50:59.968Z,91.31
2019-04-14T06:51:59.941Z,91.41
2019-04-14T06:52:59.923Z,91.37
2019-04-14T06:53:59.904Z,91.31
2019-04-14T06:54:59.987Z,91.31
2019-04-14T06:55:59.919Z,91.20
2019-04-14T06:56:59.896Z,91.41
2019-04-14T06:57:59.866Z,90.95
2019-04-14T06:58:59.845Z,91.10
2019-04-14T06:59:59.866Z,91.47
2019-04-14T07:00:59.850Z,91.52
2019-04-14T07:02:01.893Z,91.16
2019-04-14T07:02:59.796Z,90.64
2019-04-14T07:03:59.780Z,90.44
2019-04-14T07:04:59.813Z,90.44
2019-04-14T07:06:00.215Z,90.75
2019-04-14T07:06:59.769Z,91.06
2019-04-14T07:07:59.745Z,90.23
2019-04-14T07:08:59.742Z,89.81
2019-04-14T07:09:59.723Z,90.37
2019-04-14T07:10:59.726Z,91.58
2019-04-14T07:11:59.718Z,91.62
2019-04-14T07:12:59.700Z,91.37
2019-04-14T07:13:59.678Z,91.06
2019-04-14T07:14:59.659Z,90.95
2019-04-14T07:15:59.663Z,91.58
2019-04-14T07:16:59.650Z,90.95
2019-04-14T07:17:59.632Z,91.37
2019-04-14T07:18:59.619Z,91.06
2019-04-14T07:20:02.111Z,90.44
2019-04-14T07:20:59.615Z,90.44
2019-04-14T07:21:59.597Z,91.16
2019-04-14T07:22:59.577Z,91.06
2019-04-14T07:23:59.593Z,91.78
2019-04-14T07:24:59.555Z,91.16
2019-04-14T07:25:59.565Z,91.47
2019-04-14T07:26:59.532Z,91.68
2019-04-14T07:27:59.551Z,91.27
2019-04-14T07:28:59.567Z,91.37
2019-04-14T07:29:59.513Z,91.27
2019-04-14T07:30:59.521Z,91.06
2019-04-14T07:31:59.484Z,91.58
2019-04-14T07:32:59.518Z,91.68
2019-04-14T07:33:59.498Z,91.68
2019-04-14T07:34:59.485Z,91.74
2019-04-14T07:35:59.469Z,91.74
2019-04-14T07:36:59.448Z,91.74
2019-04-14T07:37:59.408Z,91.95
2019-04-14T07:38:59.404Z,91.53
2019-04-14T07:39:59.452Z,91.33
2019-04-14T07:40:59.404Z,91.43
2019-04-14T07:41:59.371Z,91.33
2019-04-14T07:42:59.351Z,91.43
2019-04-14T07:43:59.355Z,91.53
2019-04-14T07:44:59.359Z,91.60
2019-04-14T07:45:59.345Z,91.33
2019-04-14T07:46:59.343Z,90.91
2019-04-14T07:47:59.303Z,91.22
2019-04-14T07:48:59.295Z,91.39
2019-04-14T07:49:59.298Z,91.28
2019-04-14T07:50:59.273Z,90.97
2019-04-14T07:51:59.320Z,91.49
2019-04-14T07:52:59.276Z,91.18
2019-04-14T07:53:59.235Z,91.39
2019-04-14T07:54:59.237Z,91.60
2019-04-14T07:55:59.212Z,91.28
2019-04-14T07:56:59.217Z,91.43
2019-04-14T07:57:59.214Z,91.70
2019-04-14T07:58:59.199Z,91.70
2019-04-14T07:59:59.171Z,91.91
2019-04-14T08:00:59.156Z,91.28
2019-04-14T08:01:59.166Z,91.70
2019-04-14T08:02:59.150Z,90.97
2019-04-14T08:03:59.149Z,91.28
2019-04-14T08:04:59.115Z,91.28
2019-04-14T08:05:59.109Z,90.77
2019-04-14T08:06:59.115Z,90.35
2019-04-14T08:07:59.092Z,90.97
2019-04-14T08:08:59.081Z,91.39
2019-04-14T08:09:59.094Z,90.83
2019-04-14T08:10:59.050Z,91.03
2019-04-14T08:11:59.054Z,90.93
2019-04-14T08:12:59.025Z,90.41
2019-04-14T08:13:59.018Z,90.20
2019-04-14T08:14:59.021Z,90.10
2019-04-14T08:15:59.016Z,90.41
2019-04-14T08:16:59.017Z,91.35
2019-04-14T08:17:59.031Z,90.52
2019-04-14T08:18:58.954Z,90.52
2019-04-14T08:19:58.951Z,91.03
2019-04-14T08:20:58.965Z,91.14
2019-04-14T08:21:58.962Z,91.14
2019-04-14T08:22:58.914Z,91.82
2019-04-14T08:23:58.918Z,90.89
2019-04-14T08:24:58.911Z,91.20
2019-04-14T08:25:58.909Z,90.99
2019-04-14T08:26:58.912Z,91.09
2019-04-14T08:27:58.857Z,90.47
2019-04-14T08:28:58.862Z,90.12
2019-04-14T08:29:58.838Z,90.12
2019-04-14T08:30:58.836Z,90.02
2019-04-14T08:31:58.821Z,89.81
2019-04-14T08:32:58.851Z,90.12
2019-04-14T08:33:58.790Z,89.50
2019-04-14T08:34:58.852Z,89.40
2019-04-14T08:35:58.768Z,89.40
2019-04-14T08:36:58.757Z,89.71
2019-04-14T08:37:58.773Z,89.77
2019-04-14T08:38:58.747Z,89.15
2019-04-14T08:39:58.719Z,89.15
2019-04-14T08:40:58.751Z,89.25
2019-04-14T08:41:58.701Z,88.94
2019-04-14T08:42:58.705Z,89.36
2019-04-14T08:43:58.698Z,89.25
2019-04-14T08:44:58.665Z,89.04
2019-04-14T08:45:58.690Z,89.87
2019-04-14T08:46:58.648Z,89.56
2019-04-14T08:47:58.666Z,88.74
2019-04-14T08:48:58.627Z,89.15
2019-04-14T08:49:58.637Z,89.25
2019-04-14T08:50:58.632Z,89.36
2019-04-14T08:51:58.595Z,89.11
2019-04-14T08:52:58.603Z,89.42
2019-04-14T08:53:58.581Z,89.42
2019-04-14T08:54:58.579Z,89.22
2019-04-14T08:55:58.585Z,88.70
2019-04-14T08:56:58.534Z,88.70
2019-04-14T08:57:58.582Z,88.49
2019-04-14T08:58:58.523Z,87.41
2019-04-14T08:59:58.515Z,87.31
2019-04-14T09:00:58.516Z,87.31
2019-04-14T09:01:58.526Z,87.21
2019-04-14T09:02:58.516Z,87.31
2019-04-14T09:03:58.463Z,86.79
2019-04-14T09:04:58.467Z,86.18
2019-04-14T09:05:58.444Z,85.35
2019-04-14T09:06:58.437Z,85.62
2019-04-14T09:07:58.450Z,85.24
2019-04-14T09:08:58.399Z,85.76
2019-04-14T09:09:58.411Z,85.62
2019-04-14T09:10:58.418Z,85.52
2019-04-14T09:11:58.376Z,85.41
2019-04-14T09:12:59.146Z,84.38
2019-04-14T09:13:58.442Z,84.89
2019-04-14T09:14:58.342Z,84.73
2019-04-14T09:15:58.341Z,84.28
2019-04-14T09:16:58.332Z,85.45
2019-04-14T09:17:58.333Z,84.94
2019-04-14T09:19:07.393Z,84.48
2019-04-14T09:19:59.308Z,84.59
2019-04-14T09:20:58.275Z,84.48
2019-04-14T09:21:58.266Z,84.89
2019-04-14T09:22:58.253Z,84.48
2019-04-14T09:23:58.273Z,84.13
2019-04-14T09:24:58.247Z,84.34
2019-04-14T09:25:58.217Z,84.03
2019-04-14T09:26:58.214Z,84.03
2019-04-14T09:27:58.195Z,84.44
2019-04-14T09:28:58.230Z,83.62
2019-04-14T09:29:58.187Z,83.58
2019-04-14T09:30:58.192Z,83.27
2019-04-14T09:31:58.151Z,83.41
2019-04-14T09:32:58.142Z,83.58
2019-04-14T09:33:58.162Z,84.09
2019-04-14T09:34:58.121Z,84.20
2019-04-14T09:35:58.161Z,83.48
2019-04-14T09:36:58.131Z,82.34
2019-04-14T09:37:58.089Z,83.78
2019-04-14T09:38:58.099Z,84.30
2019-04-14T09:39:58.069Z,82.96
2019-04-14T09:40:58.065Z,83.83
2019-04-14T09:41:58.060Z,83.58
2019-04-14T09:42:58.023Z,84.44
2019-04-14T09:43:58.078Z,83.78
2019-04-14T09:44:58.033Z,84.20
2019-04-14T09:45:58.005Z,84.41
2019-04-14T09:46:58.014Z,84.61
2019-04-14T09:47:58.035Z,83.48
2019-04-14T09:48:57.991Z,83.48
2019-04-14T09:49:57.959Z,83.72
2019-04-14T09:51:04.682Z,83.27
2019-04-14T09:51:58.941Z,83.37
2019-04-14T09:52:57.929Z,83.17
2019-04-14T09:53:58.049Z,83.17
2019-04-14T09:54:57.894Z,84.20
2019-04-14T09:55:57.889Z,84.41
2019-04-14T09:56:57.879Z,84.34
2019-04-14T09:57:57.866Z,84.30
2019-04-14T09:58:57.875Z,83.58
2019-04-14T09:59:57.840Z,84.09
2019-04-14T10:00:57.878Z,84.51
2019-04-14T10:01:57.847Z,83.37
2019-04-14T10:02:57.840Z,83.48
2019-04-14T10:03:57.812Z,83.06
2019-04-14T10:04:57.799Z,83.31
2019-04-14T10:05:57.776Z,84.03
2019-04-14T10:06:57.769Z,84.23
2019-04-14T10:07:57.767Z,84.09
2019-04-14T10:08:57.779Z,84.20
2019-04-14T10:09:57.741Z,84.51
2019-04-14T10:10:57.752Z,84.13
2019-04-14T10:11:57.709Z,83.68
2019-04-14T10:12:57.694Z,84.09
2019-04-14T10:13:57.711Z,84.20
2019-04-14T10:14:57.757Z,84.51
2019-04-14T10:15:57.684Z,84.51
2019-04-14T10:16:57.663Z,84.51
2019-04-14T10:17:57.682Z,84.09
2019-04-14T10:18:57.628Z,84.09
2019-04-14T10:19:57.648Z,84.81
2019-04-14T10:20:57.615Z,85.02
2019-04-14T10:21:57.616Z,84.30
2019-04-14T10:22:57.582Z,83.99
2019-04-14T10:23:57.581Z,84.20
2019-04-14T10:24:57.592Z,84.23
2019-04-14T10:25:57.560Z,84.23
2019-04-14T10:26:57.545Z,84.13
2019-04-14T10:27:57.541Z,84.61
2019-04-14T10:28:57.522Z,84.51
2019-04-14T10:29:57.534Z,84.34
2019-04-14T10:30:57.516Z,84.30
2019-04-14T10:31:57.489Z,84.30
2019-04-14T10:32:57.489Z,84.61
2019-04-14T10:33:57.458Z,84.61
2019-04-14T10:34:57.498Z,84.51
2019-04-14T10:35:57.440Z,84.20
2019-04-14T10:36:57.440Z,84.72
2019-04-14T10:37:57.424Z,84.61
2019-04-14T10:38:57.433Z,84.61
2019-04-14T10:39:57.426Z,84.09
2019-04-14T10:40:57.384Z,84.44
2019-04-14T10:41:57.375Z,84.61
2019-04-14T10:42:57.418Z,84.51
2019-04-14T10:43:57.359Z,84.44
2019-04-14T10:44:57.371Z,84.41
2019-04-14T10:45:57.340Z,84.03
2019-04-14T10:46:57.334Z,84.20
2019-04-14T10:47:57.326Z,84.30
2019-04-14T10:48:57.294Z,84.41
2019-04-14T10:49:57.314Z,84.20
2019-04-14T10:50:57.282Z,84.51
2019-04-14T10:51:57.261Z,84.81
2019-04-14T10:52:57.257Z,85.44
2019-04-14T10:53:57.270Z,85.64
2019-04-14T10:54:57.242Z,85.13
2019-04-14T10:55:57.286Z,85.23
2019-04-14T10:56:57.225Z,85.02
2019-04-14T10:57:57.213Z,85.33
2019-04-14T10:58:57.195Z,85.33
2019-04-14T10:59:57.178Z,84.92
2019-04-14T11:00:57.211Z,84.72
2019-04-14T11:01:57.182Z,85.13
2019-04-14T11:02:57.157Z,85.02
2019-04-14T11:03:57.144Z,85.23
2019-04-14T11:04:57.140Z,85.13
2019-04-14T11:05:57.177Z,85.09
2019-04-14T11:06:57.108Z,85.64
2019-04-14T11:07:57.231Z,85.39
2019-04-14T11:08:57.105Z,85.19
2019-04-14T11:09:57.080Z,84.06
2019-04-14T11:10:57.101Z,84.27
2019-04-14T11:11:57.047Z,84.47
2019-04-14T11:12:57.049Z,85.19
2019-04-14T11:13:57.050Z,84.99
2019-04-14T11:14:57.021Z,84.06
2019-04-14T11:15:57.058Z,84.57
2019-04-14T11:16:56.986Z,84.12
2019-04-14T11:17:56.985Z,82.98
2019-04-14T11:18:56.979Z,83.64
2019-04-14T11:19:56.958Z,84.01
2019-04-14T11:20:56.976Z,83.91
2019-04-14T11:21:56.954Z,84.12
2019-04-14T11:23:03.272Z,83.91
2019-04-14T11:23:57.940Z,83.87
2019-04-14T11:24:56.919Z,82.84
2019-04-14T11:25:56.932Z,83.15
2019-04-14T11:26:56.887Z,82.84
2019-04-14T11:27:56.869Z,83.15
2019-04-14T11:29:58.036Z,82.29
2019-04-14T11:30:56.857Z,82.74
2019-04-14T11:32:57.989Z,82.40
2019-04-14T11:33:56.800Z,81.77
2019-04-14T11:34:56.793Z,81.37
2019-04-14T11:35:56.797Z,81.47
2019-04-14T11:37:57.964Z,80.95
2019-04-14T11:38:56.914Z,81.05
2019-04-14T11:39:56.919Z,80.85
2019-04-14T11:40:56.907Z,81.02
2019-04-14T11:41:56.946Z,81.16
2019-04-14T11:42:56.949Z,81.12
2019-04-14T11:43:56.736Z,81.53
2019-04-14T11:44:56.702Z,81.02
2019-04-14T11:45:56.669Z,81.63
2019-04-14T11:46:56.819Z,80.09
2019-04-14T11:47:56.663Z,79.58
2019-04-14T11:48:56.673Z,79.79
2019-04-14T11:49:56.642Z,79.68
2019-04-14T11:50:56.612Z,79.88
2019-04-14T11:51:56.604Z,79.06
2019-04-14T11:52:56.592Z,78.92
2019-04-14T11:53:56.618Z,78.92
2019-04-14T11:54:56.575Z,78.20
2019-04-14T11:55:56.554Z,78.06
2019-04-14T11:56:56.599Z,78.06
2019-04-14T11:57:56.539Z,78.33
2019-04-14T11:58:56.538Z,78.03
2019-04-14T11:59:56.562Z,77.20
2019-04-14T12:00:56.501Z,76.79
2019-04-14T12:01:56.547Z,75.87
2019-04-14T12:02:56.483Z,75.35
2019-04-14T12:03:56.516Z,75.04
2019-04-14T12:04:56.466Z,74.53
2019-04-14T12:05:56.470Z,75.04
2019-04-14T12:06:56.463Z,74.95
2019-04-14T12:07:56.423Z,74.40
2019-04-14T12:08:56.410Z,74.50
2019-04-14T12:09:56.407Z,74.60
2019-04-14T12:10:56.418Z,74.60
2019-04-14T12:11:56.453Z,74.70
2019-04-14T12:12:56.374Z,74.19
2019-04-14T12:13:56.351Z,73.78
2019-04-14T12:14:56.344Z,74.40
2019-04-14T12:15:56.343Z,74.91
2019-04-14T12:16:56.361Z,74.26
2019-04-14T12:17:56.325Z,73.33
2019-04-14T12:18:56.346Z,73.74
2019-04-14T12:19:56.297Z,74.15
2019-04-14T12:20:56.275Z,73.81
2019-04-14T12:22:07.662Z,73.81
2019-04-14T12:22:57.274Z,73.61
2019-04-14T12:23:56.262Z,73.50
2019-04-14T12:24:56.268Z,73.61
2019-04-14T12:26:05.063Z,73.19
2019-04-14T12:26:57.255Z,72.24
2019-04-14T12:27:56.220Z,71.72
2019-04-14T12:28:56.228Z,71.72
2019-04-14T12:29:56.739Z,71.72
2019-04-14T12:30:57.501Z,72.24
2019-04-14T12:31:57.336Z,71.59
2019-04-14T12:32:56.145Z,70.87
2019-04-14T12:33:56.676Z,70.77
2019-04-14T12:34:56.195Z,70.90
2019-04-14T12:35:56.139Z,71.28
2019-04-14T12:36:56.143Z,72.03
2019-04-14T12:37:56.089Z,70.60
2019-04-14T12:38:56.086Z,71.31
2019-04-14T12:39:56.089Z,71.83
2019-04-14T12:40:57.813Z,71.83
2019-04-14T12:41:56.075Z,71.90
2019-04-14T12:42:56.044Z,71.80
2019-04-14T12:43:56.013Z,72.00
2019-04-14T12:44:56.020Z,71.18
2019-04-14T12:45:56.003Z,70.97
2019-04-14T12:46:55.999Z,70.43
2019-04-14T12:47:56.074Z,70.43
2019-04-14T12:48:55.970Z,70.53
2019-04-14T12:49:55.966Z,70.60
2019-04-14T12:50:55.957Z,70.09
2019-04-14T12:51:55.960Z,70.19
2019-04-14T12:52:55.954Z,70.40
2019-04-14T12:53:55.909Z,70.19
2019-04-14T12:54:55.908Z,70.12
2019-04-14T12:55:55.881Z,69.23
2019-04-14T12:56:55.889Z,69.84
2019-04-14T12:57:56.010Z,69.95
2019-04-14T12:58:55.877Z,70.56
2019-04-14T12:59:55.849Z,70.87
2019-04-14T13:00:55.845Z,71.08
2019-04-14T13:01:55.826Z,70.02
2019-04-14T13:02:55.872Z,70.02
2019-04-14T13:03:55.811Z,69.89
2019-04-14T13:04:55.785Z,69.85
2019-04-14T13:05:55.775Z,69.13
2019-04-14T13:06:55.761Z,68.69
2019-04-14T13:07:55.771Z,68.66
2019-04-14T13:08:55.812Z,66.89
2019-04-14T13:09:55.758Z,66.69
2019-04-14T13:10:55.719Z,65.84
2019-04-14T13:11:55.803Z,65.50
2019-04-14T13:12:55.728Z,63.76
2019-04-14T13:13:55.709Z,64.61
2019-04-14T13:14:55.701Z,64.89
2019-04-14T13:15:55.687Z,65.09
2019-04-14T13:16:55.666Z,64.89
2019-04-14T13:17:55.706Z,64.27
2019-04-14T13:18:55.708Z,64.04
2019-04-14T13:19:55.641Z,63.22
2019-04-14T13:20:55.626Z,62.68